Sleen, Netherlands
Current Conditions -  °F | °C
As of 8:55 AM on Tuesday 21 Oct 2014 (Local Time) from EHGG Reporting Station
Light Rain Light Rain  
Wind Chill: 54°   Ceiling: 900
Heat Index: 54°   Visibility: 2mi
Dew Point: 52°   Wind: 17mph
Humidity: 94%   Direction: 200°SSW
Pressure: 29.62"   Gusts: NA
Location:  52.77°N, 6.8°E
Report Text: EHGG 210655Z AUTO 20015KT 3200 -RA FEW008 BKN009 BKN011FEW015CB 12/11 Q1003 RERA REDZ BECMG 8000 NSW TEMPO 5000 -RA -SHRAFEW025CB
Loading
Personal Weather Stations






























Interactive Weather Map
Tropical Storm Tracking
New forecast layout! Learn more

10-Day Weather Forecast

Advertisements
Track Severe Weather on mobile